Bhakkar Weather



Bhakkar's Current Weather

Temprature 43.51o scattered clouds

scattered clouds

Rain: 0 %

Min Temprature43.51o
Max Temprature43.51o
Humidity18
Wind Speed2.72 m/h
Sun Rise05:26:24
Sun Set19:17:46
Current Time: 24-Jul-2021 16:27:16
Lat/Lon: 31.6253, 71.0657




Bhakkar's Geo Location



Bhakkar's Weather Forecast

Time Overall Temp Min Temp Max Temp Humidity Wind Speed Rain
24-Jul-2021 (Sat)
17:00:00 scattered clouds 43.530 43.530 43.530 18 3.05 m/h 0 %
20:00:00 scattered clouds 42.760 41.230 42.760 20 3.98 m/h 0 %
23:00:00 few clouds 40.640 39.200 40.640 25 4.17 m/h 0 %
25-Jul-2021 (Sun)
02:00:00 clear sky 37.360 37.360 37.360 36 5.06 m/h 0 %
05:00:00 clear sky 36.040 36.040 36.040 40 4.45 m/h 0 %
08:00:00 clear sky 38.740 38.740 38.740 34 5.47 m/h 0 %
11:00:00 clear sky 43.320 43.320 43.320 22 4.01 m/h 0 %
14:00:00 clear sky 45.450 45.450 45.450 17 3.49 m/h 0 %
17:00:00 clear sky 45.830 45.830 45.830 17 4.07 m/h 0 %
20:00:00 clear sky 43.120 43.120 43.120 21 4.61 m/h 0 %
23:00:00 clear sky 41.300 41.300 41.300 24 2.97 m/h 0 %
26-Jul-2021 (Mon)
02:00:00 scattered clouds 39.400 39.400 39.400 28 3.72 m/h 0 %
05:00:00 scattered clouds 36.860 36.860 36.860 39 3.82 m/h 0 %
08:00:00 few clouds 38.950 38.950 38.950 34 2.92 m/h 0 %
11:00:00 scattered clouds 43.640 43.640 43.640 24 2.86 m/h 0 %
14:00:00 few clouds 46.480 46.480 46.480 18 2.86 m/h 0 %
17:00:00 scattered clouds 47.140 47.140 47.140 17 3.79 m/h 0 %
20:00:00 overcast clouds 44.140 44.140 44.140 22 7.56 m/h 0 %
23:00:00 overcast clouds 40.800 40.800 40.800 30 9.14 m/h 0 %
27-Jul-2021 (Tue)
02:00:00 overcast clouds 38.030 38.030 38.030 37 7.98 m/h 0 %
05:00:00 overcast clouds 36.290 36.290 36.290 43 5.89 m/h 0 %
08:00:00 overcast clouds 35.310 35.310 35.310 47 5.6 m/h 0 %
11:00:00 overcast clouds 39.760 39.760 39.760 36 4.22 m/h 0 %
14:00:00 scattered clouds 43.210 43.210 43.210 28 5.67 m/h 0 %
17:00:00 scattered clouds 43.450 43.450 43.450 27 6.85 m/h 0 %
20:00:00 scattered clouds 40.050 40.050 40.050 34 10.05 m/h 0 %
23:00:00 scattered clouds 36.350 36.350 36.350 42 9.57 m/h 0 %
28-Jul-2021 (Wed)
02:00:00 light rain 34.210 34.210 34.210 49 8.63 m/h 11 %
05:00:00 scattered clouds 32.730 32.730 32.730 55 5.92 m/h 0 %
08:00:00 clear sky 33.870 33.870 33.870 52 5.02 m/h 0 %
11:00:00 clear sky 37.970 37.970 37.970 39 5.13 m/h 0 %
14:00:00 few clouds 41.080 41.080 41.080 31 5.15 m/h 0 %
17:00:00 scattered clouds 41.080 41.080 41.080 30 5.62 m/h 0 %
20:00:00 overcast clouds 38.230 38.230 38.230 38 8.36 m/h 0 %
23:00:00 light rain 34.290 34.290 34.290 52 8.42 m/h 102 %
29-Jul-2021 (Thu)
02:00:00 light rain 31.600 31.600 31.600 61 4.8 m/h 125 %
05:00:00 moderate rain 30.440 30.440 30.440 66 3.58 m/h 480 %
08:00:00 light rain 32.240 32.240 32.240 59 4.02 m/h 140 %
11:00:00 overcast clouds 35.040 35.040 35.040 50 1.86 m/h 0 %
14:00:00 overcast clouds 37.130 37.130 37.130 43 1.14 m/h 0 %


Bhakkar's Tourist Spots

Historical Places in Bhakkar

Famous Cities (60)